Pagrindinis puslapis
METAR-TAF:

METAR-TAF

Oro uostai :

Ordu, Turkija

platuma: 40-58-00N, ilguma: 38-04-48E, Aukštis: 5 m

Dabartinis oras

Ataskaita buvo paskelbta 34 minutes, ne 01:50 UTC
Vėjas 3 kt iš Pietų/Pietvakarių
Temperatūra 0°C
Drėgmė 69%
Slėgis 1021 hPa
Matomumas 10 km arba daugiau
nėra debesų žemiau 1500 m ir nėra kamuolinių lietaus debesų

METAR: LTCB 190150Z 20003KT CAVOK M00/M05 Q1021

Laikas: 05:24 (02:24 UTC)

Prognozė

Ataskaita buvo paskelbta 3 valandos ir 44 minutes, ne 22:40 UTC
Prognozė galioja nuo 19 metu 00 UTC su 19 metu 09 UTC
Vėjas 8 kt iš Pietvakarių
Matomumas 10 km arba daugiau
nėra debesų žemiau 1500 m ir nėra kamuolinių lietaus debesų

TAF: LTCB 182240Z 1900/1909 23008KT CAVOK

Orai ataskaitas ir orų prognozės (METAR, TAF).

turimą stotys yra geltonos ir raudonos taškus žemėlapyje.

Perkelti pele per norėdami pamatyti stoties vardą.

Tada spustelėkite, norėdami matyti oro stebėjimo ir prognozės.

Norėdami pakeisti žemėlapį: spustelėkite ant žalios mygtukų su juodo kryžiaus žemyn,; žalią mygtuką su brūkšneliu, jei norite nutolinti; arba žalių rodyklių gretimoms žemėlapius.


METAR-TAF: